Time;durP1;ratioP1;P1;durP2;ratioP2;P2;SDS_P1;SDS_P2;PMS_P1;PMS_P2;Temp;Humidity;BMP_temperature;BMP_pressure;BME280_temperature;BME280_humidity;BME280_pressure;Samples;Min_cycle;Max_cycle;Signal;HPM_P1;HPM_P2
2024/01/30 00:01:39;;;;;;;49.60;20.23;;;-4.20;99.90;;;;;;4227969;28;20271;-60
2024/01/30 00:03:40;;;;;;;39.93;18.63;;;-4.20;99.90;;;;;;4229018;28;20349;-61
2024/01/30 00:05:41;;;;;;;55.00;23.33;;;-4.30;99.90;;;;;;4227808;27;20337;-59
2024/01/30 00:07:43;;;;;;;65.13;25.03;;;-4.30;99.90;;;;;;4228963;28;20329;-60
2024/01/30 00:09:47;;;;;;;51.03;23.30;;;-4.30;99.90;;;;;;4228344;28;20276;-59
2024/01/30 00:11:49;;;;;;;60.80;24.75;;;-4.30;99.90;;;;;;4224839;28;20310;-60
2024/01/30 00:13:50;;;;;;;56.93;23.47;;;-4.30;99.90;;;;;;4228133;28;20097;-61
2024/01/30 00:15:51;;;;;;;59.40;23.57;;;-4.40;99.90;;;;;;4228082;28;20337;-60
2024/01/30 00:17:52;;;;;;;60.70;26.60;;;-4.30;99.90;;;;;;4229005;27;20264;-60
2024/01/30 00:19:53;;;;;;;67.07;28.10;;;-4.40;99.90;;;;;;4227953;28;20372;-60
2024/01/30 00:21:54;;;;;;;64.87;25.97;;;-4.30;99.90;;;;;;4228800;28;20292;-60
2024/01/30 00:23:55;;;;;;;60.97;26.37;;;-4.40;99.90;;;;;;4227731;27;20284;-61
2024/01/30 00:25:57;;;;;;;49.53;21.23;;;-4.40;99.90;;;;;;4229248;28;20329;-60
2024/01/30 00:27:58;;;;;;;44.42;18.23;;;-4.40;99.90;;;;;;4227646;28;20306;-61
2024/01/30 00:29:59;;;;;;;46.90;20.57;;;-4.40;99.90;;;;;;4229075;27;20100;-61
2024/01/30 00:32:00;;;;;;;42.07;18.90;;;-4.40;99.90;;;;;;4227779;27;20305;-61
2024/01/30 00:34:01;;;;;;;41.60;18.93;;;-4.40;99.90;;;;;;4229258;28;20271;-61
2024/01/30 00:36:03;;;;;;;44.67;19.93;;;-4.40;99.90;;;;;;4227471;28;20634;-61
2024/01/30 00:38:04;;;;;;;41.97;19.20;;;-4.40;99.90;;;;;;4228318;27;20353;-62
2024/01/30 00:40:06;;;;;;;43.20;18.07;;;-4.40;99.90;;;;;;4227716;28;20425;-61
2024/01/30 00:42:07;;;;;;;40.17;17.60;;;-4.40;99.90;;;;;;4228255;28;20662;-62
2024/01/30 00:44:08;;;;;;;42.83;18.53;;;-4.40;99.90;;;;;;4228010;27;20804;-60
2024/01/30 00:46:09;;;;;;;42.37;18.47;;;-4.40;99.90;;;;;;4228371;28;20360;-61
2024/01/30 00:48:10;;;;;;;43.57;19.13;;;-4.50;99.90;;;;;;4228315;28;20797;-60
2024/01/30 00:50:12;;;;;;;38.43;18.37;;;-4.50;99.90;;;;;;4227140;28;20255;-61
2024/01/30 00:52:13;;;;;;;38.80;20.25;;;-4.50;99.90;;;;;;4228418;28;20268;-61
2024/01/30 00:54:14;;;;;;;42.40;20.27;;;-4.50;99.90;;;;;;4227448;28;20089;-60
2024/01/30 00:56:18;;;;;;;46.72;21.25;;;-4.50;99.90;;;;;;4228498;28;20264;-60
2024/01/30 00:58:19;;;;;;;48.90;20.85;;;-4.50;99.90;;;;;;4227255;28;20417;-61
2024/01/30 01:00:20;;;;;;;45.10;19.23;;;-4.60;99.90;;;;;;4227984;28;20361;-60
2024/01/30 01:02:22;;;;;;;53.65;20.40;;;-4.60;99.90;;;;;;4227420;28;20364;-61
2024/01/30 01:04:23;;;;;;;41.67;21.23;;;-4.60;99.90;;;;;;4228152;28;20031;-61
2024/01/30 01:06:24;;;;;;;47.00;21.67;;;-4.60;99.90;;;;;;4227660;28;20252;-60
2024/01/30 01:08:25;;;;;;;51.27;22.83;;;-4.70;99.90;;;;;;4228292;28;20597;-60
2024/01/30 01:10:28;;;;;;;52.80;21.80;;;-4.70;99.90;;;;;;4227021;28;21123;-59
2024/01/30 01:12:29;;;;;;;49.97;22.13;;;-4.70;99.90;;;;;;4228181;28;20256;-60
2024/01/30 01:14:30;;;;;;;51.58;22.85;;;-4.70;99.90;;;;;;4226935;28;20036;-61
2024/01/30 01:16:31;;;;;;;53.20;22.20;;;-4.70;99.90;;;;;;4227488;28;20039;-60
2024/01/30 01:18:32;;;;;;;54.53;23.93;;;-4.80;99.90;;;;;;4227598;28;20842;-60
2024/01/30 01:20:34;;;;;;;66.00;27.92;;;-4.80;99.90;;;;;;4227490;28;20325;-60
2024/01/30 01:22:35;;;;;;;87.68;39.13;;;-4.80;99.90;;;;;;4227312;28;20031;-60
2024/01/30 01:24:36;;;;;;;102.15;47.17;;;-4.80;99.90;;;;;;4227542;28;20047;-60
2024/01/30 01:26:37;;;;;;;123.33;59.50;;;-4.80;99.90;;;;;;4227985;28;20040;-60
2024/01/30 01:28:42;;;;;;;113.77;57.60;;;-4.80;99.90;;;;;;4226890;28;20663;-60
2024/01/30 01:30:43;;;;;;;86.70;42.47;;;-4.80;99.90;;;;;;4227891;28;20295;-61
2024/01/30 01:32:50;;;;;;;68.03;30.08;;;-4.90;99.90;;;;;;4226834;28;20272;-61
2024/01/30 01:34:51;;;;;;;56.87;25.10;;;-5.00;99.90;;;;;;4228168;28;20112;-62
2024/01/30 01:36:55;;;;;;;56.67;24.90;;;-5.00;99.90;;;;;;4226471;28;20272;-61
2024/01/30 01:38:56;;;;;;;58.17;24.27;;;-5.10;99.90;;;;;;4227662;28;20036;-60
2024/01/30 01:40:57;;;;;;;57.78;23.90;;;-5.20;99.90;;;;;;4226826;28;20314;-60
2024/01/30 01:42:58;;;;;;;51.70;25.00;;;-5.20;99.90;;;;;;4227897;28;20036;-60
2024/01/30 01:44:59;;;;;;;50.55;21.88;;;-5.30;99.90;;;;;;4226991;28;20414;-61
2024/01/30 01:47:01;;;;;;;55.47;24.30;;;-5.30;99.90;;;;;;4227867;28;20445;-59
2024/01/30 01:49:04;;;;;;;57.10;24.25;;;-5.40;99.90;;;;;;4227200;28;20035;-59
2024/01/30 01:51:06;;;;;;;49.90;21.55;;;-5.40;99.90;;;;;;4227576;28;20410;-62
2024/01/30 01:53:08;;;;;;;55.63;23.92;;;-5.40;99.90;;;;;;4227126;28;20100;-62
2024/01/30 01:55:10;;;;;;;60.58;25.33;;;-5.30;99.90;;;;;;4227573;28;20557;-62
2024/01/30 01:57:12;;;;;;;53.55;23.20;;;-5.30;99.90;;;;;;4227329;28;20096;-61
2024/01/30 01:59:13;;;;;;;51.85;23.40;;;-5.30;99.90;;;;;;4226706;28;20065;-58
2024/01/30 02:01:16;;;;;;;53.17;24.37;;;-5.30;99.90;;;;;;4226304;28;20550;-60
2024/01/30 02:03:18;;;;;;;49.20;22.38;;;-5.30;99.90;;;;;;4228718;27;20296;-61
2024/01/30 02:05:21;;;;;;;49.27;23.60;;;-5.30;99.90;;;;;;4230997;27;20069;-62
2024/01/30 02:07:22;;;;;;;52.55;22.75;;;-5.30;99.90;;;;;;4229590;28;20796;-61
2024/01/30 02:09:23;;;;;;;52.30;22.58;;;-5.30;99.90;;;;;;4230879;28;20096;-62
2024/01/30 02:11:24;;;;;;;50.35;23.00;;;-5.40;99.90;;;;;;4230001;28;20540;-59
2024/01/30 02:13:25;;;;;;;53.65;22.83;;;-5.40;99.90;;;;;;4231002;28;20603;-62
2024/01/30 02:15:27;;;;;;;48.72;21.75;;;-5.40;99.90;;;;;;4229975;28;20031;-62
2024/01/30 02:17:28;;;;;;;49.65;22.25;;;-5.30;99.90;;;;;;4231357;28;20039;-61
2024/01/30 02:19:29;;;;;;;44.95;18.95;;;-5.40;99.90;;;;;;4229973;28;20410;-62
2024/01/30 02:21:30;;;;;;;39.45;19.75;;;-5.40;99.90;;;;;;4230817;28;20035;-61
2024/01/30 02:23:33;;;;;;;41.17;19.48;;;-5.50;99.90;;;;;;4229903;28;20140;-61
2024/01/30 02:25:38;;;;;;;41.63;19.23;;;-5.50;99.90;;;;;;4230988;28;20064;-61
2024/01/30 02:27:39;;;;;;;40.33;18.98;;;-5.60;99.90;;;;;;4229838;28;20369;-61
2024/01/30 02:29:41;;;;;;;47.15;18.85;;;-5.70;99.90;;;;;;4230006;28;20092;-61
2024/01/30 02:31:42;;;;;;;42.13;20.25;;;-5.70;99.90;;;;;;4230524;28;20390;-61
2024/01/30 02:33:43;;;;;;;44.10;19.15;;;-5.70;99.90;;;;;;4229968;27;20073;-60
2024/01/30 02:35:45;;;;;;;44.20;18.35;;;-5.70;99.90;;;;;;4230823;28;20039;-61
2024/01/30 02:37:46;;;;;;;38.95;18.52;;;-5.70;99.90;;;;;;4229717;28;20053;-62
2024/01/30 02:39:47;;;;;;;46.45;19.98;;;-5.70;99.90;;;;;;4228570;28;20089;-61
2024/01/30 02:41:48;;;;;;;42.13;20.38;;;-5.80;99.90;;;;;;4229580;28;20039;-60
2024/01/30 02:43:50;;;;;;;45.47;19.80;;;-5.70;99.90;;;;;;4230612;28;20492;-59
2024/01/30 02:45:51;;;;;;;41.25;19.48;;;-5.70;99.90;;;;;;4228952;28;20096;-62
2024/01/30 02:47:52;;;;;;;50.58;22.17;;;-5.70;99.90;;;;;;4230611;27;20088;-61
2024/01/30 02:49:53;;;;;;;46.70;20.38;;;-5.80;99.90;;;;;;4229465;28;20023;-60
2024/01/30 02:51:56;;;;;;;51.22;21.73;;;-5.90;99.90;;;;;;4230479;28;20143;-59
2024/01/30 02:53:57;;;;;;;48.85;23.10;;;-6.00;99.90;;;;;;4229000;28;20085;-61
2024/01/30 02:55:58;;;;;;;48.03;23.20;;;-6.00;99.90;;;;;;4230568;28;20031;-62
2024/01/30 02:57:59;;;;;;;50.00;21.92;;;-6.00;99.90;;;;;;4228930;28;20028;-60
2024/01/30 03:00:01;;;;;;;55.20;22.08;;;-6.10;99.90;;;;;;4229615;28;20449;-62
2024/01/30 03:02:02;;;;;;;50.10;22.65;;;-6.10;99.90;;;;;;4229306;28;20032;-59
2024/01/30 03:04:03;;;;;;;45.83;21.52;;;-6.10;99.90;;;;;;4229224;28;20069;-62
2024/01/30 03:06:05;;;;;;;45.72;21.02;;;-6.10;99.90;;;;;;4230213;28;20434;-61
2024/01/30 03:08:06;;;;;;;49.65;22.20;;;-6.10;99.90;;;;;;4228866;28;20036;-60
2024/01/30 03:10:08;;;;;;;46.90;22.15;;;-6.10;99.90;;;;;;4230151;28;20032;-62
2024/01/30 03:12:09;;;;;;;58.55;23.63;;;-6.00;99.90;;;;;;4228162;28;20028;-61
2024/01/30 03:14:10;;;;;;;47.97;22.00;;;-6.00;99.90;;;;;;4229890;28;20088;-60
2024/01/30 03:16:12;;;;;;;58.53;22.02;;;-6.00;99.90;;;;;;4228418;28;20670;-61
2024/01/30 03:18:13;;;;;;;55.20;23.33;;;-5.90;99.90;;;;;;4229678;28;20093;-62
2024/01/30 03:20:14;;;;;;;49.40;22.55;;;-5.90;99.90;;;;;;4228640;28;20464;-60
2024/01/30 03:22:15;;;;;;;51.97;22.42;;;-5.90;99.90;;;;;;4229928;28;20444;-61
2024/01/30 03:24:17;;;;;;;49.65;21.58;;;-5.90;99.90;;;;;;4228745;27;20092;-60
2024/01/30 03:26:18;;;;;;;45.88;20.30;;;-5.90;99.90;;;;;;4230720;27;20036;-62
2024/01/30 03:28:19;;;;;;;43.63;19.77;;;-5.90;99.90;;;;;;4228250;28;20470;-62
2024/01/30 03:30:20;;;;;;;49.35;22.77;;;-5.90;99.90;;;;;;4229354;28;20081;-62
2024/01/30 03:32:21;;;;;;;47.10;21.35;;;-5.90;99.90;;;;;;4229033;28;20036;-62
2024/01/30 03:34:23;;;;;;;54.00;21.92;;;-5.90;99.90;;;;;;4229299;27;20092;-62
2024/01/30 03:36:24;;;;;;;47.35;21.48;;;-5.90;99.90;;;;;;4229602;27;20552;-62
2024/01/30 03:38:25;;;;;;;49.05;22.02;;;-5.90;99.90;;;;;;4228748;27;20085;-62
2024/01/30 03:40:26;;;;;;;45.10;20.77;;;-5.80;99.90;;;;;;4229753;28;20851;-62
2024/01/30 03:42:27;;;;;;;43.65;19.77;;;-5.90;99.90;;;;;;4227823;28;20035;-61
2024/01/30 03:44:29;;;;;;;42.13;20.15;;;-5.90;99.90;;;;;;4229234;28;20039;-61
2024/01/30 03:46:30;;;;;;;45.90;20.38;;;-5.90;99.90;;;;;;4228563;27;20032;-62
2024/01/30 03:48:31;;;;;;;51.65;21.35;;;-5.90;99.90;;;;;;4229400;28;20040;-61
2024/01/30 03:50:32;;;;;;;43.45;21.75;;;-5.90;99.90;;;;;;4228453;27;20426;-61
2024/01/30 03:52:33;;;;;;;44.95;20.83;;;-5.90;99.90;;;;;;4229599;28;20036;-61
2024/01/30 03:54:35;;;;;;;57.13;23.48;;;-5.90;99.90;;;;;;4228699;27;20418;-61
2024/01/30 03:56:36;;;;;;;47.75;22.00;;;-5.90;99.90;;;;;;4229711;28;20089;-62
2024/01/30 03:58:37;;;;;;;42.50;20.55;;;-5.90;99.90;;;;;;4228410;27;20035;-61
2024/01/30 04:00:38;;;;;;;50.78;20.63;;;-5.90;99.90;;;;;;4227850;27;20056;-60
2024/01/30 04:02:39;;;;;;;50.05;20.15;;;-5.90;99.90;;;;;;4227815;28;20368;-61
2024/01/30 04:04:41;;;;;;;46.65;20.75;;;-5.90;99.90;;;;;;4229059;27;20047;-60
2024/01/30 04:06:42;;;;;;;43.40;19.08;;;-5.90;99.90;;;;;;4228740;28;20488;-61
2024/01/30 04:08:44;;;;;;;49.67;22.30;;;-5.90;99.90;;;;;;4228208;28;20032;-60
2024/01/30 04:10:46;;;;;;;44.15;21.17;;;-5.90;99.90;;;;;;4228871;28;20085;-62
2024/01/30 04:12:47;;;;;;;42.95;21.00;;;-5.80;99.90;;;;;;4227396;27;20650;-61
2024/01/30 04:14:48;;;;;;;43.95;19.15;;;-5.90;99.90;;;;;;4228883;28;20483;-62
2024/01/30 04:16:49;;;;;;;46.33;21.15;;;-5.80;99.90;;;;;;4227768;28;20104;-57
2024/01/30 04:18:52;;;;;;;47.58;22.52;;;-5.90;99.90;;;;;;4229049;28;20136;-60
2024/01/30 04:20:53;;;;;;;69.78;29.02;;;-5.90;99.90;;;;;;4227723;28;20369;-60
2024/01/30 04:22:54;;;;;;;49.35;24.17;;;-5.90;99.90;;;;;;4228756;27;20416;-59
2024/01/30 04:24:55;;;;;;;47.72;22.13;;;-6.00;99.90;;;;;;4227247;28;20027;-60
2024/01/30 04:26:57;;;;;;;44.17;20.38;;;-6.00;99.90;;;;;;4228994;28;20027;-59
2024/01/30 04:29:01;;;;;;;46.80;21.65;;;-6.00;99.90;;;;;;4227436;28;20126;-62
2024/01/30 04:31:02;;;;;;;42.05;18.50;;;-6.10;99.90;;;;;;4228775;28;20043;-61
2024/01/30 04:33:04;;;;;;;44.78;18.52;;;-6.10;99.90;;;;;;4227144;28;20076;-63
2024/01/30 04:35:05;;;;;;;53.15;21.90;;;-6.00;99.90;;;;;;4228183;28;20081;-59
2024/01/30 04:37:06;;;;;;;30.60;15.80;;;-6.10;99.90;;;;;;4228137;28;20032;-58
2024/01/30 04:39:08;;;;;;;36.08;16.13;;;-6.10;99.90;;;;;;4228083;28;20757;-61
2024/01/30 04:41:10;;;;;;;35.08;15.90;;;-6.00;99.90;;;;;;4228051;28;20074;-61
2024/01/30 04:43:11;;;;;;;39.38;17.85;;;-6.00;99.90;;;;;;4222827;28;20560;-60
2024/01/30 04:45:13;;;;;;;39.20;18.33;;;-6.00;99.90;;;;;;4211414;28;20093;-60
2024/01/30 04:47:14;;;;;;;53.83;22.67;;;-6.00;99.90;;;;;;4210652;28;20036;-61
2024/01/30 04:49:15;;;;;;;59.35;25.50;;;-6.00;99.90;;;;;;4215269;28;20499;-59
2024/01/30 04:51:16;;;;;;;59.28;26.30;;;-6.00;99.90;;;;;;4227237;28;20027;-60
2024/01/30 04:53:17;;;;;;;50.25;20.50;;;-6.00;99.90;;;;;;4227544;27;20084;-60
2024/01/30 04:55:18;;;;;;;48.38;22.35;;;-6.00;99.90;;;;;;4227839;28;20073;-60
2024/01/30 04:57:20;;;;;;;63.75;27.98;;;-6.00;99.90;;;;;;4228010;28;20425;-59
2024/01/30 04:59:21;;;;;;;94.15;40.97;;;-6.00;99.90;;;;;;4219290;28;20031;-59
2024/01/30 05:01:22;;;;;;;83.43;36.83;;;-6.00;99.90;;;;;;4228557;27;20036;-58
2024/01/30 05:03:24;;;;;;;77.97;33.33;;;-6.00;99.90;;;;;;4226984;28;20097;-63
2024/01/30 05:05:25;;;;;;;68.20;30.20;;;-6.10;99.90;;;;;;4228063;28;20421;-60
2024/01/30 05:07:26;;;;;;;64.68;27.38;;;-6.10;99.90;;;;;;4227277;28;20053;-62
2024/01/30 05:09:28;;;;;;;59.30;25.13;;;-6.10;99.90;;;;;;4227309;28;20035;-63
2024/01/30 05:11:29;;;;;;;57.45;23.63;;;-6.10;99.90;;;;;;4226259;28;20020;-59
2024/01/30 05:13:33;;;;;;;54.25;24.38;;;-6.10;99.90;;;;;;4227313;28;20096;-58
2024/01/30 05:15:34;;;;;;;53.95;24.35;;;-6.10;99.90;;;;;;4227676;28;20039;-57
2024/01/30 05:17:35;;;;;;;63.08;26.05;;;-6.00;99.90;;;;;;4227197;28;20043;-57
2024/01/30 05:19:37;;;;;;;49.22;23.83;;;-6.10;99.90;;;;;;4227899;28;20027;-58
2024/01/30 05:21:38;;;;;;;49.20;20.98;;;-6.00;99.90;;;;;;4227375;27;20104;-61
2024/01/30 05:23:41;;;;;;;57.70;23.17;;;-6.00;99.90;;;;;;4227697;28;20128;-59
2024/01/30 05:25:42;;;;;;;47.95;20.38;;;-6.00;99.90;;;;;;4226999;28;20073;-60
2024/01/30 05:27:43;;;;;;;41.95;18.45;;;-6.10;99.90;;;;;;4227880;28;20565;-60
2024/01/30 05:29:45;;;;;;;42.35;19.80;;;-6.10;99.90;;;;;;4226803;28;20019;-60
2024/01/30 05:31:46;;;;;;;40.72;18.77;;;-6.10;99.90;;;;;;4227896;28;20035;-59
2024/01/30 05:33:48;;;;;;;42.47;19.02;;;-6.10;99.90;;;;;;4226720;28;20599;-60
2024/01/30 05:35:49;;;;;;;44.80;19.17;;;-6.10;99.90;;;;;;4228652;28;20092;-57
2024/01/30 05:37:50;;;;;;;43.25;20.60;;;-6.10;99.90;;;;;;4230334;28;20521;-58
2024/01/30 05:39:51;;;;;;;43.13;20.02;;;-6.10;99.90;;;;;;4231275;28;20061;-59
2024/01/30 05:41:53;;;;;;;53.95;20.25;;;-6.10;99.90;;;;;;4230286;28;20027;-60
2024/01/30 05:43:54;;;;;;;44.75;18.40;;;-6.10;99.90;;;;;;4223770;27;20039;-59
2024/01/30 05:45:55;;;;;;;47.38;20.67;;;-6.10;99.90;;;;;;4219933;28;20020;-59
2024/01/30 05:47:56;;;;;;;48.92;22.95;;;-6.00;99.90;;;;;;4213310;28;20436;-58
2024/01/30 05:49:57;;;;;;;68.38;30.80;;;-6.00;99.90;;;;;;4214078;28;20032;-60
2024/01/30 05:51:58;;;;;;;76.18;34.58;;;-6.00;99.90;;;;;;4213340;28;20036;-57
2024/01/30 05:54:00;;;;;;;71.85;33.00;;;-6.10;99.90;;;;;;4226528;28;20104;-60
2024/01/30 05:56:05;;;;;;;69.05;29.85;;;-6.00;99.90;;;;;;4230945;28;20024;-60
2024/01/30 05:58:06;;;;;;;60.78;29.63;;;-6.00;99.90;;;;;;4230896;28;20036;-61
2024/01/30 06:00:08;;;;;;;62.15;27.25;;;-6.00;99.90;;;;;;4230484;27;20039;-57
2024/01/30 06:02:11;;;;;;;54.83;24.80;;;-6.00;99.90;;;;;;4231333;27;20044;-58
2024/01/30 06:04:12;;;;;;;61.20;27.38;;;-6.00;99.90;;;;;;4230018;27;20120;-60
2024/01/30 06:06:13;;;;;;;58.13;27.48;;;-5.90;99.90;;;;;;4230188;27;20035;-57
2024/01/30 06:08:14;;;;;;;58.40;25.27;;;-5.80;99.90;;;;;;4229819;28;20044;-60
2024/01/30 06:10:16;;;;;;;55.72;26.25;;;-5.60;99.90;;;;;;4230999;28;20035;-61
2024/01/30 06:12:17;;;;;;;54.60;24.17;;;-5.50;99.90;;;;;;4229179;28;20032;-60
2024/01/30 06:14:18;;;;;;;53.20;23.60;;;-5.30;99.90;;;;;;4230513;28;20517;-60
2024/01/30 06:16:21;;;;;;;39.15;18.73;;;-5.10;99.90;;;;;;4229104;28;20081;-59
2024/01/30 06:18:22;;;;;;;47.23;20.23;;;-4.70;99.90;;;;;;4229414;28;20024;-60
2024/01/30 06:20:23;;;;;;;42.20;18.83;;;-4.50;99.90;;;;;;4229027;28;20597;-60
2024/01/30 06:22:24;;;;;;;35.30;17.63;;;-4.20;99.90;;;;;;4227011;28;20056;-57
2024/01/30 06:24:25;;;;;;;40.50;18.83;;;-3.90;99.90;;;;;;4229957;28;20360;-60
2024/01/30 06:26:26;;;;;;;39.50;19.43;;;-3.70;99.90;;;;;;4230146;28;20747;-60
2024/01/30 06:28:28;;;;;;;37.07;16.70;;;-3.50;99.90;;;;;;4230793;27;20264;-59
2024/01/30 06:30:29;;;;;;;32.97;16.83;;;-3.30;99.90;;;;;;4229542;28;20256;-62
2024/01/30 06:32:34;;;;;;;32.20;16.97;;;-3.10;99.90;;;;;;4230632;28;20317;-59
2024/01/30 06:34:35;;;;;;;34.13;16.33;;;-2.70;99.90;;;;;;4229707;27;20268;-61
2024/01/30 06:36:36;;;;;;;31.70;14.87;;;-2.50;99.90;;;;;;4230414;28;20263;-58
2024/01/30 06:38:37;;;;;;;43.33;17.63;;;-2.30;99.90;;;;;;4228545;28;20303;-60
2024/01/30 06:40:38;;;;;;;32.93;16.63;;;-2.10;99.90;;;;;;4230303;28;20362;-61
2024/01/30 06:42:39;;;;;;;42.90;19.60;;;-1.80;99.90;;;;;;4229444;27;20321;-61
2024/01/30 06:44:41;;;;;;;30.83;16.03;;;-1.60;99.90;;;;;;4230465;27;20292;-59
2024/01/30 06:46:42;;;;;;;27.77;14.57;;;-1.50;99.90;;;;;;4229445;27;20264;-60
2024/01/30 06:48:44;;;;;;;25.93;14.20;;;-1.40;99.90;;;;;;4229490;28;20276;-61
2024/01/30 06:50:46;;;;;;;28.57;14.93;;;-1.00;99.90;;;;;;4229565;28;20272;-61
2024/01/30 06:52:47;;;;;;;28.60;14.23;;;-0.90;99.90;;;;;;4229826;27;20294;-61
2024/01/30 06:54:48;;;;;;;26.93;14.47;;;-0.70;99.90;;;;;;4230063;27;20272;-60
2024/01/30 06:56:49;;;;;;;23.13;14.47;;;-0.50;99.90;;;;;;4229406;28;20834;-62
2024/01/30 06:58:51;;;;;;;32.60;15.40;;;-0.30;99.90;;;;;;4229752;28;20309;-61
2024/01/30 07:00:52;;;;;;;31.93;16.33;;;0.00;99.90;;;;;;4228994;28;20260;-61
2024/01/30 07:02:53;;;;;;;30.20;16.10;;;0.20;99.90;;;;;;4230047;27;20264;-61
2024/01/30 07:04:54;;;;;;;32.13;16.57;;;0.50;99.90;;;;;;4228828;28;20284;-61
2024/01/30 07:06:55;;;;;;;34.77;18.10;;;0.80;99.90;;;;;;4230132;28;20264;-61
2024/01/30 07:08:56;;;;;;;39.53;19.60;;;1.20;99.90;;;;;;4229387;28;20256;-61
2024/01/30 07:10:57;;;;;;;38.40;20.43;;;1.40;99.90;;;;;;4229983;28;20268;-61
2024/01/30 07:13:00;;;;;;;37.23;21.43;;;1.60;99.90;;;;;;4228573;28;20068;-57
2024/01/30 07:15:03;;;;;;;39.80;21.50;;;1.90;99.90;;;;;;4230001;27;20031;-61
2024/01/30 07:17:04;;;;;;;37.77;20.87;;;2.20;99.90;;;;;;4228601;28;20564;-62
2024/01/30 07:19:05;;;;;;;43.13;22.70;;;2.60;99.90;;;;;;4229981;28;20089;-60
2024/01/30 07:21:06;;;;;;;42.60;21.50;;;2.80;99.90;;;;;;4228839;27;20434;-60
2024/01/30 07:23:07;;;;;;;35.17;21.50;;;2.70;99.90;;;;;;4229274;28;20089;-61
2024/01/30 07:25:09;;;;;;;38.13;21.27;;;2.50;99.90;;;;;;4229356;28;20047;-60
2024/01/30 07:27:10;;;;;;;38.90;20.47;;;2.50;99.90;;;;;;4228855;28;20023;-62
2024/01/30 07:29:11;;;;;;;40.03;20.80;;;1.90;99.90;;;;;;4229219;28;20016;-57
2024/01/30 07:31:12;;;;;;;37.27;20.13;;;1.70;99.90;;;;;;4228721;27;20430;-60
2024/01/30 07:33:14;;;;;;;39.23;20.87;;;1.90;99.90;;;;;;4229812;27;20496;-60
2024/01/30 07:35:15;;;;;;;48.03;22.63;;;1.90;99.90;;;;;;4228373;28;20032;-60
2024/01/30 07:37:16;;;;;;;36.13;21.23;;;2.30;99.90;;;;;;4229761;27;20039;-60
2024/01/30 07:39:17;;;;;;;39.93;21.73;;;2.60;99.90;;;;;;4228860;28;20033;-61
2024/01/30 07:41:18;;;;;;;43.67;23.73;;;2.60;99.90;;;;;;4229845;28;20088;-61
2024/01/30 07:43:20;;;;;;;38.50;22.63;;;2.60;99.90;;;;;;4228138;28;20032;-60
2024/01/30 07:45:22;;;;;;;46.97;23.33;;;2.60;99.90;;;;;;4229348;28;20040;-61
2024/01/30 07:47:23;;;;;;;43.67;24.13;;;2.40;99.90;;;;;;4228103;28;20048;-62
2024/01/30 07:49:25;;;;;;;41.47;22.83;;;2.30;99.90;;;;;;4229679;27;20813;-61
2024/01/30 07:51:28;;;;;;;41.50;21.80;;;2.40;99.90;;;;;;4228111;28;20281;-59
2024/01/30 07:53:29;;;;;;;43.37;22.67;;;2.70;99.90;;;;;;4229192;27;20673;-61
2024/01/30 07:55:31;;;;;;;38.73;21.97;;;2.70;99.90;;;;;;4228402;28;20349;-61
2024/01/30 07:57:33;;;;;;;45.33;21.57;;;2.80;99.90;;;;;;4228800;28;20317;-62
2024/01/30 07:59:35;;;;;;;40.77;22.13;;;2.90;99.90;;;;;;4228921;27;20252;-60
2024/01/30 08:01:36;;;;;;;36.77;20.90;;;2.80;99.90;;;;;;4228358;28;20252;-62
2024/01/30 08:03:39;;;;;;;44.27;20.17;;;2.80;99.90;;;;;;4228857;27;20324;-62
2024/01/30 08:05:40;;;;;;;40.40;20.80;;;2.80;99.90;;;;;;4226575;28;20264;-61
2024/01/30 08:07:42;;;;;;;41.90;22.17;;;2.40;99.90;;;;;;4229383;27;20309;-59
2024/01/30 08:09:44;;;;;;;38.30;20.67;;;2.30;99.90;;;;;;4228770;27;20256;-62
2024/01/30 08:11:45;;;;;;;43.57;22.33;;;2.20;99.90;;;;;;4228911;28;20256;-61
2024/01/30 08:13:46;;;;;;;43.43;22.40;;;1.90;99.90;;;;;;4227968;28;20264;-61
2024/01/30 08:15:47;;;;;;;42.60;21.77;;;1.90;99.90;;;;;;4228706;28;20372;-61
2024/01/30 08:17:55;;;;;;;38.07;19.97;;;2.30;99.90;;;;;;4227792;28;20260;-62
2024/01/30 08:19:56;;;;;;;40.73;22.10;;;2.60;99.90;;;;;;4229181;27;20701;-57
2024/01/30 08:21:57;;;;;;;45.10;23.77;;;2.10;99.90;;;;;;4227750;27;20295;-61
2024/01/30 08:23:59;;;;;;;46.97;22.53;;;1.60;99.90;;;;;;4228752;28;20816;-60
2024/01/30 08:26:00;;;;;;;42.00;21.23;;;1.30;99.90;;;;;;4227992;27;20264;-62
2024/01/30 08:28:01;;;;;;;48.50;21.83;;;1.20;99.90;;;;;;4228313;28;20317;-54
2024/01/30 08:30:03;;;;;;;36.77;20.53;;;0.90;99.90;;;;;;4228018;28;20333;-60
2024/01/30 08:32:07;;;;;;;48.30;22.47;;;0.80;99.90;;;;;;4227652;27;20324;-60
2024/01/30 08:34:08;;;;;;;44.60;22.00;;;1.20;99.90;;;;;;4228036;27;20260;-61
2024/01/30 08:36:09;;;;;;;39.37;20.80;;;1.30;99.90;;;;;;4228031;27;20272;-62
2024/01/30 08:38:12;;;;;;;44.60;21.07;;;1.60;99.90;;;;;;4228521;28;20353;-62
2024/01/30 08:40:13;;;;;;;45.87;20.73;;;1.70;99.90;;;;;;4227834;27;20641;-61
2024/01/30 08:42:15;;;;;;;37.43;19.83;;;1.50;99.90;;;;;;4228723;28;20260;-62
2024/01/30 08:44:17;;;;;;;38.93;20.73;;;1.50;99.90;;;;;;4227325;28;20292;-61
2024/01/30 08:46:19;;;;;;;37.80;19.07;;;1.20;99.90;;;;;;4228384;28;20271;-62
2024/01/30 08:48:22;;;;;;;36.67;19.70;;;0.80;99.90;;;;;;4227512;28;20276;-61
2024/01/30 08:50:23;;;;;;;35.20;18.13;;;1.00;99.90;;;;;;4228309;28;20272;-60
2024/01/30 08:52:24;;;;;;;37.33;18.17;;;1.10;99.90;;;;;;4227593;27;20276;-61
2024/01/30 08:54:26;;;;;;;35.87;19.30;;;0.90;99.90;;;;;;4228607;28;20666;-59
2024/01/30 08:56:27;;;;;;;32.43;17.77;;;0.80;99.90;;;;;;4227338;28;20276;-61
2024/01/30 08:58:28;;;;;;;32.23;17.20;;;0.60;99.90;;;;;;4228198;28;20321;-61
2024/01/30 09:00:29;;;;;;;32.73;17.80;;;0.80;99.90;;;;;;4227428;28;20313;-59
2024/01/30 09:02:30;;;;;;;33.17;17.07;;;0.80;99.90;;;;;;4227926;28;20801;-61
2024/01/30 09:04:32;;;;;;;32.33;16.20;;;0.70;99.90;;;;;;4227265;28;20279;-61
2024/01/30 09:06:33;;;;;;;29.07;15.57;;;0.60;99.90;;;;;;4227634;28;20669;-61
2024/01/30 09:08:34;;;;;;;32.23;15.00;;;0.40;99.90;;;;;;4228159;28;20619;-60
2024/01/30 09:10:35;;;;;;;25.37;14.40;;;0.60;99.90;;;;;;4226732;28;20260;-59
2024/01/30 09:12:36;;;;;;;25.10;14.50;;;0.90;99.90;;;;;;4228077;28;20261;-60
2024/01/30 09:14:38;;;;;;;28.63;15.23;;;1.30;99.90;;;;;;4226960;28;20420;-60
2024/01/30 09:16:40;;;;;;;34.73;15.80;;;1.10;99.90;;;;;;4228055;28;20727;-60
2024/01/30 09:18:41;;;;;;;33.53;15.90;;;1.10;99.90;;;;;;4226873;28;20736;-60
2024/01/30 09:20:42;;;;;;;25.70;15.37;;;1.00;99.90;;;;;;4228170;28;20674;-60
2024/01/30 09:22:43;;;;;;;24.93;14.03;;;0.90;99.90;;;;;;4226815;28;20322;-58
2024/01/30 09:24:44;;;;;;;27.33;14.57;;;0.90;99.90;;;;;;4227531;28;20345;-54
2024/01/30 09:26:46;;;;;;;28.57;12.40;;;0.90;99.90;;;;;;4226913;28;20313;-59
2024/01/30 09:28:47;;;;;;;23.00;12.53;;;0.80;99.90;;;;;;4228079;28;20674;-60
2024/01/30 09:30:48;;;;;;;29.97;13.57;;;0.90;99.90;;;;;;4226817;28;20716;-62
2024/01/30 09:32:49;;;;;;;26.57;12.60;;;1.00;99.90;;;;;;4227840;28;20597;-58
2024/01/30 09:34:50;;;;;;;28.90;13.13;;;1.00;99.90;;;;;;4227138;28;20264;-58
2024/01/30 09:36:52;;;;;;;24.60;13.87;;;0.90;99.90;;;;;;4227412;28;20727;-58
2024/01/30 09:38:53;;;;;;;24.53;13.13;;;0.70;99.90;;;;;;4227682;28;20724;-59
2024/01/30 09:40:58;;;;;;;22.97;13.50;;;0.60;99.90;;;;;;4227348;28;20272;-61
2024/01/30 09:43:02;;;;;;;30.13;15.73;;;0.50;99.90;;;;;;4227262;28;20313;-59
2024/01/30 09:45:05;;;;;;;31.20;16.13;;;0.50;99.90;;;;;;4227031;28;20697;-60
2024/01/30 09:47:06;;;;;;;34.77;16.40;;;0.50;99.90;;;;;;4227809;28;20317;-60
2024/01/30 09:49:09;;;;;;;34.87;16.60;;;0.60;99.90;;;;;;4226540;28;20309;-62
2024/01/30 09:51:11;;;;;;;29.23;15.20;;;0.70;99.90;;;;;;4227908;28;20244;-58
2024/01/30 09:53:14;;;;;;;29.40;15.47;;;0.60;99.90;;;;;;4226715;28;20356;-60
2024/01/30 09:55:15;;;;;;;31.43;15.83;;;0.70;99.90;;;;;;4227616;28;20334;-57
2024/01/30 09:57:16;;;;;;;29.23;14.03;;;0.90;99.90;;;;;;4226134;28;20272;-61
2024/01/30 09:59:17;;;;;;;32.07;14.47;;;0.90;99.90;;;;;;4227968;28;20333;-62
2024/01/30 10:01:19;;;;;;;32.23;15.20;;;0.90;99.90;;;;;;4226697;28;20276;-61
2024/01/30 10:03:20;;;;;;;30.70;14.47;;;1.00;99.90;;;;;;4227736;28;20605;-61
2024/01/30 10:05:28;;;;;;;30.00;14.67;;;1.10;99.90;;;;;;4226673;28;20292;-61
2024/01/30 10:07:30;;;;;;;29.20;14.33;;;1.00;99.90;;;;;;4227876;28;20281;-61
2024/01/30 10:09:34;;;;;;;32.13;15.67;;;1.00;99.90;;;;;;4227074;28;20341;-59
2024/01/30 10:11:36;;;;;;;32.40;14.33;;;0.90;99.90;;;;;;4227675;28;20276;-60
2024/01/30 10:13:39;;;;;;;25.73;13.00;;;0.90;99.90;;;;;;4226813;28;20910;-59
2024/01/30 10:15:41;;;;;;;28.93;13.73;;;1.00;99.90;;;;;;4227175;28;20654;-60
2024/01/30 10:17:42;;;;;;;32.90;13.50;;;1.10;99.90;;;;;;4227102;28;20293;-59
2024/01/30 10:19:43;;;;;;;24.57;12.57;;;1.20;99.90;;;;;;4226529;28;20272;-61